createdAt,value
2023-03-15T00:02:52.054Z,99.90
2023-03-15T00:07:54.696Z,99.90
2023-03-15T00:12:57.433Z,99.90
2023-03-15T00:18:00.088Z,99.90
2023-03-15T00:23:02.767Z,99.90
2023-03-15T00:28:05.931Z,99.90
2023-03-15T00:33:09.494Z,99.90
2023-03-15T00:38:13.846Z,99.90
2023-03-15T00:43:18.238Z,99.90
2023-03-15T00:48:20.801Z,99.90
2023-03-15T00:53:23.571Z,99.90
2023-03-15T00:58:27.558Z,99.90
2023-03-15T01:03:30.483Z,99.90
2023-03-15T01:08:33.367Z,99.90
2023-03-15T01:13:37.109Z,99.90
2023-03-15T01:18:40.024Z,99.90
2023-03-15T01:23:43.060Z,99.90
2023-03-15T01:28:46.045Z,99.90
2023-03-15T01:33:48.865Z,99.90
2023-03-15T01:38:51.912Z,99.90
2023-03-15T01:43:59.839Z,99.90
2023-03-15T01:49:20.311Z,99.90
2023-03-15T01:54:31.201Z,99.90
2023-03-15T01:59:46.141Z,99.90
2023-03-15T02:05:05.023Z,99.90
2023-03-15T02:10:11.574Z,99.90
2023-03-15T02:15:16.324Z,99.90
2023-03-15T02:20:48.559Z,99.90
2023-03-15T02:26:21.990Z,99.90
2023-03-15T02:31:25.258Z,99.90
2023-03-15T02:36:30.264Z,99.90
2023-03-15T02:41:37.642Z,99.90
2023-03-15T02:46:41.785Z,99.90
2023-03-15T02:51:44.649Z,99.90
2023-03-15T02:56:47.364Z,99.90
2023-03-15T03:01:50.182Z,99.90
2023-03-15T03:06:53.825Z,99.90
2023-03-15T03:12:00.047Z,99.90
2023-03-15T03:17:03.542Z,99.90
2023-03-15T03:22:07.167Z,99.90
2023-03-15T03:27:09.992Z,99.90
2023-03-15T03:32:14.289Z,99.90
2023-03-15T03:37:21.288Z,99.90
2023-03-15T03:42:32.752Z,99.90
2023-03-15T03:47:35.395Z,99.90
2023-03-15T03:52:38.134Z,99.90
2023-03-15T03:57:48.010Z,99.90
2023-03-15T04:02:59.862Z,99.90
2023-03-15T04:08:03.290Z,99.90
2023-03-15T04:13:11.949Z,99.90
2023-03-15T04:18:15.913Z,99.90
2023-03-15T04:23:24.403Z,99.90
2023-03-15T04:28:34.955Z,99.90
2023-03-15T04:33:56.915Z,99.90
2023-03-15T04:39:32.086Z,99.90
2023-03-15T04:44:54.317Z,99.90
2023-03-15T04:50:17.620Z,99.90
2023-03-15T04:55:40.848Z,99.90
2023-03-15T05:00:54.454Z,99.90
2023-03-15T05:06:26.556Z,99.90
2023-03-15T05:11:49.677Z,99.90
2023-03-15T05:17:16.109Z,99.90
2023-03-15T05:22:30.405Z,99.90
2023-03-15T05:27:53.189Z,99.90
2023-03-15T05:33:05.994Z,99.90
2023-03-15T05:38:21.241Z,99.90
2023-03-15T05:43:42.485Z,99.90
2023-03-15T05:48:57.690Z,99.90
2023-03-15T05:54:13.126Z,99.90
2023-03-15T05:59:41.955Z,99.90
2023-03-15T06:05:07.701Z,99.90
2023-03-15T06:10:11.913Z,99.90
2023-03-15T06:15:14.919Z,99.90
2023-03-15T06:20:18.025Z,99.90
2023-03-15T06:25:21.273Z,99.90
2023-03-15T06:30:24.270Z,99.90
2023-03-15T06:35:31.964Z,99.90
2023-03-15T06:40:35.203Z,99.90
2023-03-15T06:45:37.999Z,99.90
2023-03-15T06:50:47.211Z,99.90
2023-03-15T06:55:52.613Z,99.90
2023-03-15T07:00:55.401Z,99.90
2023-03-15T07:05:58.322Z,99.90
2023-03-15T07:11:02.569Z,99.90
2023-03-15T07:16:05.685Z,99.90
2023-03-15T07:21:08.588Z,99.90
2023-03-15T07:26:11.829Z,99.90
2023-03-15T07:31:15.431Z,99.90
2023-03-15T07:36:18.238Z,99.90
2023-03-15T07:41:21.137Z,99.90
2023-03-15T07:46:34.198Z,99.90
2023-03-15T07:51:37.079Z,99.90
2023-03-15T07:56:40.014Z,99.90
2023-03-15T08:01:42.848Z,99.90
2023-03-15T08:06:45.724Z,99.90
2023-03-15T08:11:48.714Z,99.90
2023-03-15T08:17:47.644Z,99.90
2023-03-15T08:23:02.403Z,99.90
2023-03-15T08:28:05.634Z,99.90
2023-03-15T08:33:09.354Z,99.90
2023-03-15T08:38:13.021Z,99.90
2023-03-15T08:43:16.008Z,99.90
2023-03-15T08:48:18.745Z,99.90
2023-03-15T08:53:22.036Z,99.90
2023-03-15T08:58:25.266Z,99.90
2023-03-15T09:03:28.385Z,99.90
2023-03-15T09:08:33.695Z,99.90
2023-03-15T09:13:36.806Z,99.90
2023-03-15T09:18:41.293Z,99.90
2023-03-15T09:23:44.205Z,99.90
2023-03-15T09:28:47.324Z,99.90
2023-03-15T09:33:50.178Z,99.90
2023-03-15T09:38:52.898Z,99.90
2023-03-15T09:44:17.299Z,99.90
2023-03-15T09:49:52.462Z,96.70
2023-03-15T09:55:23.825Z,96.60
2023-03-15T10:00:45.875Z,95.00
2023-03-15T10:05:54.797Z,94.80
2023-03-15T10:11:20.672Z,93.70
2023-03-15T10:16:23.321Z,91.30
2023-03-15T10:21:50.585Z,91.00
2023-03-15T10:26:54.425Z,87.20
2023-03-15T10:31:57.564Z,88.90
2023-03-15T10:37:00.316Z,85.10
2023-03-15T10:42:04.138Z,87.10
2023-03-15T10:47:23.685Z,82.10
2023-03-15T10:52:40.166Z,81.90
2023-03-15T10:57:57.076Z,81.30
2023-03-15T11:03:20.652Z,78.70
2023-03-15T11:08:45.486Z,78.20
2023-03-15T11:14:01.408Z,79.20
2023-03-15T11:19:12.281Z,77.70
2023-03-15T11:24:30.094Z,72.20
2023-03-15T11:29:38.450Z,71.70
2023-03-15T11:34:56.545Z,71.50
2023-03-15T11:40:12.145Z,69.60
2023-03-15T11:45:53.953Z,67.70
2023-03-15T11:51:20.158Z,64.90
2023-03-15T11:56:29.428Z,64.20
2023-03-15T12:01:35.165Z,61.90
2023-03-15T12:06:39.136Z,58.90
2023-03-15T12:11:43.360Z,58.90
2023-03-15T12:16:47.358Z,54.50
2023-03-15T12:21:57.679Z,55.40
2023-03-15T12:27:06.947Z,55.70
2023-03-15T12:32:15.293Z,56.30
2023-03-15T12:37:18.467Z,56.50
2023-03-15T12:42:31.583Z,54.90
2023-03-15T12:47:51.101Z,55.00
2023-03-15T12:53:01.332Z,53.80
2023-03-15T12:58:05.222Z,54.40
2023-03-15T13:03:16.958Z,52.90
2023-03-15T13:08:26.434Z,50.00
2023-03-15T13:14:14.314Z,51.70
2023-03-15T13:19:19.513Z,51.10
2023-03-15T13:24:33.748Z,51.80
2023-03-15T13:29:37.227Z,48.30
2023-03-15T13:34:41.309Z,49.60
2023-03-15T13:40:01.597Z,49.50
2023-03-15T13:45:12.099Z,48.90
2023-03-15T13:50:21.865Z,47.30
2023-03-15T13:55:28.886Z,46.90
2023-03-15T14:00:34.295Z,50.00
2023-03-15T14:05:48.699Z,47.10
2023-03-15T14:11:21.278Z,47.40
2023-03-15T14:17:01.127Z,48.90
2023-03-15T14:22:18.579Z,49.70
2023-03-15T14:27:27.164Z,49.50
2023-03-15T14:32:33.220Z,49.40
2023-03-15T14:37:39.845Z,48.50
2023-03-15T14:42:43.959Z,48.50
2023-03-15T14:47:57.198Z,49.30
2023-03-15T14:53:01.063Z,49.80
2023-03-15T14:58:18.411Z,50.70
2023-03-15T15:03:36.127Z,51.60
2023-03-15T15:08:42.041Z,53.20
2023-03-15T15:13:45.437Z,55.10
2023-03-15T15:18:48.931Z,54.60
2023-03-15T15:23:58.329Z,54.60
2023-03-15T15:29:02.098Z,56.60
2023-03-15T15:34:05.517Z,55.80
2023-03-15T15:39:15.790Z,56.20
2023-03-15T15:44:21.528Z,56.90
2023-03-15T15:49:24.880Z,58.60
2023-03-15T15:54:30.889Z,58.30
2023-03-15T15:59:34.409Z,58.50
2023-03-15T16:04:37.355Z,60.20
2023-03-15T16:09:40.790Z,60.00
2023-03-15T16:14:44.083Z,60.20
2023-03-15T16:19:46.855Z,61.90
2023-03-15T16:24:53.485Z,61.40
2023-03-15T16:29:56.901Z,63.00
2023-03-15T16:35:01.310Z,63.50
2023-03-15T16:40:10.185Z,63.90
2023-03-15T16:45:14.287Z,64.50
2023-03-15T16:50:19.182Z,64.70
2023-03-15T16:55:27.531Z,65.70
2023-03-15T17:00:31.937Z,66.30
2023-03-15T17:05:34.815Z,67.50
2023-03-15T17:10:37.464Z,69.30
2023-03-15T17:15:40.547Z,72.00
2023-03-15T17:20:43.429Z,73.90
2023-03-15T17:25:46.654Z,77.20
2023-03-15T17:30:51.566Z,85.00
2023-03-15T17:35:58.983Z,85.60
2023-03-15T17:41:03.090Z,84.60
2023-03-15T17:46:06.077Z,86.10
2023-03-15T17:51:12.791Z,89.40
2023-03-15T17:56:15.942Z,94.90
2023-03-15T18:01:21.397Z,95.80
2023-03-15T18:06:24.590Z,99.90
2023-03-15T18:11:34.081Z,99.90
2023-03-15T18:16:37.297Z,99.90
2023-03-15T18:21:40.359Z,99.90
2023-03-15T18:26:43.491Z,99.90
2023-03-15T18:31:46.277Z,99.90
2023-03-15T18:36:49.414Z,99.90
2023-03-15T18:41:52.293Z,99.90
2023-03-15T18:46:55.425Z,99.90
2023-03-15T18:51:58.344Z,99.90
2023-03-15T18:57:01.911Z,99.90
2023-03-15T19:02:05.201Z,99.90
2023-03-15T19:07:08.024Z,99.90
2023-03-15T19:12:11.656Z,99.90
2023-03-15T19:17:14.526Z,99.90
2023-03-15T19:22:17.572Z,99.90
2023-03-15T19:27:20.448Z,99.90
2023-03-15T19:32:24.712Z,99.90
2023-03-15T19:37:27.740Z,99.90
2023-03-15T19:42:31.169Z,99.90
2023-03-15T19:47:34.378Z,99.90
2023-03-15T19:52:40.200Z,99.90
2023-03-15T19:57:43.253Z,99.90
2023-03-15T20:02:46.320Z,99.90
2023-03-15T20:07:51.592Z,99.90
2023-03-15T20:12:59.325Z,99.90
2023-03-15T20:18:02.781Z,99.90
2023-03-15T20:23:05.447Z,99.90
2023-03-15T20:28:08.386Z,99.90
2023-03-15T20:33:11.249Z,99.90
2023-03-15T20:38:14.098Z,99.90
2023-03-15T20:43:16.699Z,99.90
2023-03-15T20:48:22.430Z,99.90
2023-03-15T20:53:25.811Z,99.90
2023-03-15T20:58:29.354Z,99.90
2023-03-15T21:03:34.484Z,99.90
2023-03-15T21:08:38.142Z,99.90
2023-03-15T21:13:41.175Z,99.90
2023-03-15T21:18:45.330Z,99.90
2023-03-15T21:23:48.244Z,99.90
2023-03-15T21:28:51.587Z,99.90
2023-03-15T21:33:54.652Z,99.90
2023-03-15T21:38:57.527Z,99.90
2023-03-15T21:44:00.173Z,99.90
2023-03-15T21:49:02.895Z,99.90
2023-03-15T21:54:05.731Z,99.90
2023-03-15T21:59:08.511Z,99.90
2023-03-15T22:04:11.583Z,99.90
2023-03-15T22:09:14.249Z,99.90
2023-03-15T22:14:17.131Z,99.90
2023-03-15T22:19:19.927Z,99.90
2023-03-15T22:24:22.600Z,99.90
2023-03-15T22:29:25.444Z,99.90
2023-03-15T22:34:28.391Z,99.90
2023-03-15T22:39:35.505Z,99.90
2023-03-15T22:44:38.103Z,99.90
2023-03-15T22:49:40.913Z,99.90
2023-03-15T22:54:43.939Z,99.90
2023-03-15T22:59:46.686Z,99.90
2023-03-15T23:04:49.318Z,99.90
2023-03-15T23:09:51.897Z,99.90
2023-03-15T23:14:54.732Z,99.90
2023-03-15T23:19:57.336Z,99.90
2023-03-15T23:24:59.860Z,99.90
2023-03-15T23:30:02.759Z,99.90
2023-03-15T23:35:07.588Z,99.90
2023-03-15T23:40:15.427Z,99.90
2023-03-15T23:45:18.268Z,99.90
2023-03-15T23:50:21.537Z,99.90
2023-03-15T23:55:24.920Z,99.90
